sensor_id;sensor_type;location;lat;lon;timestamp;P1;durP1;ratioP1;P2;durP2;ratioP2
15002;SDS011;7597;53.590;10.020;2023-03-26T06:47:16;17.03;;;3.60;;
15002;SDS011;7597;53.590;10.020;2023-03-26T06:49:44;18.05;;;4.62;;
15002;SDS011;7597;53.590;10.020;2023-03-26T06:52:10;17.85;;;3.95;;
15002;SDS011;7597;53.590;10.020;2023-03-26T06:54:37;17.63;;;4.10;;
15002;SDS011;7597;53.590;10.020;2023-03-26T06:57:04;18.87;;;4.03;;
15002;SDS011;7597;53.590;10.020;2023-03-26T06:59:30;15.77;;;3.60;;
15002;SDS011;7597;53.590;10.020;2023-03-26T07:01:57;15.73;;;3.65;;
15002;SDS011;7597;53.590;10.020;2023-03-26T07:04:24;17.20;;;3.70;;
15002;SDS011;7597;53.590;10.020;2023-03-26T07:06:51;16.12;;;3.72;;
15002;SDS011;7597;53.590;10.020;2023-03-26T07:09:17;20.57;;;3.80;;
15002;SDS011;7597;53.590;10.020;2023-03-26T07:11:44;14.43;;;3.78;;
15002;SDS011;7597;53.590;10.020;2023-03-26T07:14:11;12.43;;;3.23;;
15002;SDS011;7597;53.590;10.020;2023-03-26T07:16:37;10.90;;;3.20;;
15002;SDS011;7597;53.590;10.020;2023-03-26T07:19:04;13.87;;;3.37;;
15002;SDS011;7597;53.590;10.020;2023-03-26T07:21:31;13.68;;;3.20;;
15002;SDS011;7597;53.590;10.020;2023-03-26T07:23:58;13.85;;;3.47;;
15002;SDS011;7597;53.590;10.020;2023-03-26T07:26:27;14.13;;;3.87;;
15002;SDS011;7597;53.590;10.020;2023-03-26T07:28:58;16.90;;;3.70;;
15002;SDS011;7597;53.590;10.020;2023-03-26T07:31:33;11.20;;;3.30;;
15002;SDS011;7597;53.590;10.020;2023-03-26T07:34:06;12.25;;;3.20;;
15002;SDS011;7597;53.590;10.020;2023-03-26T07:36:38;14.73;;;3.40;;
15002;SDS011;7597;53.590;10.020;2023-03-26T07:41:39;11.77;;;3.30;;
15002;SDS011;7597;53.590;10.020;2023-03-26T07:44:14;14.07;;;4.05;;
15002;SDS011;7597;53.590;10.020;2023-03-26T07:46:38;13.07;;;3.27;;
15002;SDS011;7597;53.590;10.020;2023-03-26T07:49:05;13.77;;;3.92;;
15002;SDS011;7597;53.590;10.020;2023-03-26T07:51:32;17.33;;;3.83;;
15002;SDS011;7597;53.590;10.020;2023-03-26T07:54:00;13.45;;;3.62;;
15002;SDS011;7597;53.590;10.020;2023-03-26T07:56:33;17.35;;;3.95;;
15002;SDS011;7597;53.590;10.020;2023-03-26T07:59:33;12.75;;;4.00;;
15002;SDS011;7597;53.590;10.020;2023-03-26T08:02:02;13.62;;;3.53;;
15002;SDS011;7597;53.590;10.020;2023-03-26T08:04:45;19.92;;;4.30;;
15002;SDS011;7597;53.590;10.020;2023-03-26T08:08:02;21.10;;;4.10;;
15002;SDS011;7597;53.590;10.020;2023-03-26T08:10:22;15.27;;;3.70;;
15002;SDS011;7597;53.590;10.020;2023-03-26T08:13:09;14.60;;;4.40;;
15002;SDS011;7597;53.590;10.020;2023-03-26T08:16:02;20.52;;;4.45;;
15002;SDS011;7597;53.590;10.020;2023-03-26T08:18:38;13.83;;;4.30;;
15002;SDS011;7597;53.590;10.020;2023-03-26T08:21:10;13.93;;;3.60;;
15002;SDS011;7597;53.590;10.020;2023-03-26T08:23:57;16.15;;;4.28;;
15002;SDS011;7597;53.590;10.020;2023-03-26T08:26:31;16.62;;;4.15;;
15002;SDS011;7597;53.590;10.020;2023-03-26T08:31:54;12.48;;;3.87;;
15002;SDS011;7597;53.590;10.020;2023-03-26T08:34:22;16.80;;;3.80;;
15002;SDS011;7597;53.590;10.020;2023-03-26T08:36:49;18.73;;;4.43;;
15002;SDS011;7597;53.590;10.020;2023-03-26T08:39:16;16.30;;;4.37;;
15002;SDS011;7597;53.590;10.020;2023-03-26T08:41:53;13.10;;;3.90;;
15002;SDS011;7597;53.590;10.020;2023-03-26T08:44:40;15.48;;;3.92;;
15002;SDS011;7597;53.590;10.020;2023-03-26T08:47:33;12.45;;;4.10;;
15002;SDS011;7597;53.590;10.020;2023-03-26T08:52:38;17.00;;;4.30;;
15002;SDS011;7597;53.590;10.020;2023-03-26T08:55:29;13.38;;;3.70;;
15002;SDS011;7597;53.590;10.020;2023-03-26T09:00:38;12.53;;;4.20;;
15002;SDS011;7597;53.590;10.020;2023-03-26T09:03:10;11.12;;;3.58;;
15002;SDS011;7597;53.590;10.020;2023-03-26T09:05:44;15.15;;;3.53;;
15002;SDS011;7597;53.590;10.020;2023-03-26T09:13:50;11.50;;;3.57;;
15002;SDS011;7597;53.590;10.020;2023-03-26T09:16:23;14.33;;;3.97;;
15002;SDS011;7597;53.590;10.020;2023-03-26T09:18:54;14.65;;;4.12;;
15002;SDS011;7597;53.590;10.020;2023-03-26T09:21:31;11.02;;;3.47;;
15002;SDS011;7597;53.590;10.020;2023-03-26T09:25:11;13.50;;;3.80;;
15002;SDS011;7597;53.590;10.020;2023-03-26T09:26:45;10.45;;;3.80;;
15002;SDS011;7597;53.590;10.020;2023-03-26T09:29:28;10.57;;;3.50;;
15002;SDS011;7597;53.590;10.020;2023-03-26T09:37:35;12.70;;;3.83;;
15002;SDS011;7597;53.590;10.020;2023-03-26T09:42:44;12.07;;;4.00;;
15002;SDS011;7597;53.590;10.020;2023-03-26T09:45:15;17.08;;;6.75;;
15002;SDS011;7597;53.590;10.020;2023-03-26T09:47:46;12.27;;;3.92;;
15002;SDS011;7597;53.590;10.020;2023-03-26T09:50:18;9.85;;;3.42;;
15002;SDS011;7597;53.590;10.020;2023-03-26T09:58:25;11.85;;;3.30;;
15002;SDS011;7597;53.590;10.020;2023-03-26T10:00:56;12.40;;;3.72;;
15002;SDS011;7597;53.590;10.020;2023-03-26T10:03:27;13.00;;;6.32;;
15002;SDS011;7597;53.590;10.020;2023-03-26T10:08:50;13.30;;;4.05;;
15002;SDS011;7597;53.590;10.020;2023-03-26T10:11:36;11.27;;;3.60;;
15002;SDS011;7597;53.590;10.020;2023-03-26T11:35:48;8.95;;;3.42;;
15002;SDS011;7597;53.590;10.020;2023-03-26T11:41:04;11.10;;;3.40;;
15002;SDS011;7597;53.590;10.020;2023-03-26T11:43:32;8.77;;;3.55;;
15002;SDS011;7597;53.590;10.020;2023-03-26T11:45:58;10.43;;;3.70;;
15002;SDS011;7597;53.590;10.020;2023-03-26T11:48:34;8.43;;;3.28;;
15002;SDS011;7597;53.590;10.020;2023-03-26T11:51:08;8.73;;;3.10;;
15002;SDS011;7597;53.590;10.020;2023-03-26T11:53:34;9.90;;;3.45;;
15002;SDS011;7597;53.590;10.020;2023-03-26T11:58:52;8.95;;;3.40;;
15002;SDS011;7597;53.590;10.020;2023-03-26T12:01:24;8.85;;;3.55;;
15002;SDS011;7597;53.590;10.020;2023-03-26T12:03:57;9.95;;;3.75;;
15002;SDS011;7597;53.590;10.020;2023-03-26T12:06:28;8.38;;;3.45;;
15002;SDS011;7597;53.590;10.020;2023-03-26T12:08:54;10.95;;;3.60;;
15002;SDS011;7597;53.590;10.020;2023-03-26T12:11:25;9.55;;;3.55;;
15002;SDS011;7597;53.590;10.020;2023-03-26T12:13:51;8.05;;;3.22;;
15002;SDS011;7597;53.590;10.020;2023-03-26T12:16:17;8.02;;;3.30;;
15002;SDS011;7597;53.590;10.020;2023-03-26T12:18:43;10.65;;;3.42;;
15002;SDS011;7597;53.590;10.020;2023-03-26T12:21:12;9.07;;;3.70;;
15002;SDS011;7597;53.590;10.020;2023-03-26T12:23:42;8.77;;;3.47;;
15002;SDS011;7597;53.590;10.020;2023-03-26T12:26:11;7.20;;;3.10;;
15002;SDS011;7597;53.590;10.020;2023-03-26T12:28:36;9.77;;;3.83;;
15002;SDS011;7597;53.590;10.020;2023-03-26T12:31:03;11.13;;;3.27;;
15002;SDS011;7597;53.590;10.020;2023-03-26T12:33:30;9.10;;;3.00;;
15002;SDS011;7597;53.590;10.020;2023-03-26T12:38:38;9.40;;;3.17;;
15002;SDS011;7597;53.590;10.020;2023-03-26T12:41:06;9.80;;;3.70;;
15002;SDS011;7597;53.590;10.020;2023-03-26T12:43:38;10.45;;;3.67;;
15002;SDS011;7597;53.590;10.020;2023-03-26T12:46:08;9.80;;;3.42;;
15002;SDS011;7597;53.590;10.020;2023-03-26T12:48:31;9.20;;;3.37;;
15002;SDS011;7597;53.590;10.020;2023-03-26T12:56:22;9.35;;;3.28;;
15002;SDS011;7597;53.590;10.020;2023-03-26T12:58:54;7.82;;;3.15;;
15002;SDS011;7597;53.590;10.020;2023-03-26T13:01:37;7.33;;;3.30;;
15002;SDS011;7597;53.590;10.020;2023-03-26T13:04:06;7.97;;;3.30;;
15002;SDS011;7597;53.590;10.020;2023-03-26T13:06:43;7.87;;;2.95;;
15002;SDS011;7597;53.590;10.020;2023-03-26T13:09:28;6.90;;;2.90;;
15002;SDS011;7597;53.590;10.020;2023-03-26T13:12:00;10.60;;;3.40;;
15002;SDS011;7597;53.590;10.020;2023-03-26T13:14:31;9.75;;;4.97;;
15002;SDS011;7597;53.590;10.020;2023-03-26T13:17:03;8.05;;;3.40;;
15002;SDS011;7597;53.590;10.020;2023-03-26T13:19:33;8.23;;;3.17;;
15002;SDS011;7597;53.590;10.020;2023-03-26T13:25:21;7.77;;;3.10;;
15002;SDS011;7597;53.590;10.020;2023-03-26T13:28:03;8.63;;;3.40;;
